Time;durP1;ratioP1;P1;durP2;ratioP2;P2;SDS_P1;SDS_P2;PMS_P1;PMS_P2;Temp;Humidity;BMP_temperature;BMP_pressure;BME280_temperature;BME280_humidity;BME280_pressure;Samples;Min_cycle;Max_cycle;Signal;HPM_P1;HPM_P2
2021/09/18 00:01:26;;;;;;;33.80;23.20;;;;;13.00;101080.00;;;;10539424;27;20204;-78
2021/09/18 00:06:28;;;;;;;30.23;23.10;;;;;13.00;101074.00;;;;10527219;28;20821;-78
2021/09/18 00:11:29;;;;;;;29.93;22.50;;;;;12.90;101073.00;;;;10554985;27;20221;-78
2021/09/18 00:16:31;;;;;;;31.13;21.97;;;;;12.80;101078.00;;;;10525258;28;20767;-78
2021/09/18 00:21:32;;;;;;;39.80;25.73;;;;;12.70;101081.00;;;;10562857;27;20203;-77
2021/09/18 00:26:33;;;;;;;38.37;24.97;;;;;12.70;101085.00;;;;10536921;27;20651;-78
2021/09/18 00:31:46;;;;;;;40.50;27.03;;;;;12.80;101076.00;;;;10510580;27;20221;-78
2021/09/18 00:36:47;;;;;;;38.60;24.83;;;;;12.80;101072.00;;;;10500346;28;20205;-78
2021/09/18 00:41:49;;;;;;;39.43;26.80;;;;;12.70;101076.00;;;;10508740;28;20873;-78
2021/09/18 00:46:53;;;;;;;32.47;23.60;;;;;12.70;101087.00;;;;10518965;27;20211;-77
2021/09/18 00:51:54;;;;;;;35.73;23.07;;;;;12.60;101075.00;;;;10545603;27;20220;-77
2021/09/18 00:56:58;;;;;;;32.67;22.40;;;;;12.60;101080.00;;;;10547272;28;20196;-78
2021/09/18 01:01:59;;;;;;;29.77;20.70;;;;;12.50;101073.00;;;;10532068;28;20208;-77
2021/09/18 01:07:02;;;;;;;29.97;21.90;;;;;12.50;101068.00;;;;10521842;28;20197;-77
2021/09/18 01:12:06;;;;;;;30.90;22.13;;;;;12.40;101074.00;;;;10524749;28;20568;-77
2021/09/18 01:17:07;;;;;;;33.30;21.47;;;;;12.40;101075.00;;;;10504327;28;20785;-76
2021/09/18 01:22:09;;;;;;;31.30;22.00;;;;;12.30;101089.00;;;;10504694;28;20272;-78
2021/09/18 01:27:10;;;;;;;30.57;20.90;;;;;12.20;101087.00;;;;10481979;27;20207;-78
2021/09/18 01:32:18;;;;;;;27.80;21.17;;;;;12.10;101087.00;;;;10499497;28;20242;-78
2021/09/18 01:37:19;;;;;;;33.10;21.53;;;;;12.10;101092.00;;;;10518444;27;20204;-78
2021/09/18 01:42:20;;;;;;;29.27;20.07;;;;;12.10;101093.00;;;;10542995;28;20223;-77
2021/09/18 01:47:22;;;;;;;33.10;21.83;;;;;12.00;101089.00;;;;10510585;27;20219;-77
2021/09/18 01:52:35;;;;;;;33.97;22.90;;;;;12.00;101084.00;;;;10506463;28;20843;-77
2021/09/18 01:57:41;;;;;;;29.17;21.33;;;;;12.00;101081.00;;;;10527198;27;20207;-77
2021/09/18 02:02:42;;;;;;;30.23;21.00;;;;;12.00;101079.00;;;;10542729;27;20200;-77
2021/09/18 02:07:45;;;;;;;31.60;21.20;;;;;12.00;101084.00;;;;10524011;27;20200;-77
2021/09/18 02:12:47;;;;;;;29.83;21.60;;;;;11.90;101078.00;;;;10540938;27;20231;-77
2021/09/18 02:17:53;;;;;;;31.80;21.17;;;;;11.90;101077.00;;;;10557293;27;20211;-77
2021/09/18 02:22:55;;;;;;;32.40;21.03;;;;;11.80;101077.00;;;;10535742;27;20283;-77
2021/09/18 02:27:57;;;;;;;37.10;24.37;;;;;11.80;101080.00;;;;10504813;27;20206;-78
2021/09/18 02:32:59;;;;;;;32.67;23.47;;;;;11.70;101066.00;;;;10499059;28;20220;-77
2021/09/18 02:38:03;;;;;;;40.10;24.83;;;;;11.70;101069.00;;;;10499316;28;20213;-77
2021/09/18 02:43:05;;;;;;;29.63;22.47;;;;;11.70;101063.00;;;;10517936;27;20711;-78
2021/09/18 02:48:06;;;;;;;32.17;21.63;;;;;11.70;101059.00;;;;10532412;28;20204;-77
2021/09/18 02:53:08;;;;;;;33.20;21.10;;;;;11.60;101065.00;;;;10521823;27;20204;-77
2021/09/18 02:58:09;;;;;;;35.03;23.47;;;;;11.50;101061.00;;;;10508288;27;20226;-77
2021/09/18 03:03:10;;;;;;;35.20;21.77;;;;;11.50;101056.00;;;;10547444;27;20215;-78
2021/09/18 03:08:12;;;;;;;36.10;24.53;;;;;11.50;101054.00;;;;10546828;27;20241;-78
2021/09/18 03:13:13;;;;;;;34.07;22.80;;;;;11.50;101055.00;;;;10549287;27;20567;-77
2021/09/18 03:18:14;;;;;;;37.20;22.20;;;;;11.40;101055.00;;;;10546565;28;20220;-77
2021/09/18 03:23:16;;;;;;;35.47;22.87;;;;;11.40;101056.00;;;;10508754;28;20211;-77
2021/09/18 03:28:17;;;;;;;40.97;25.50;;;;;11.40;101057.00;;;;10530146;27;20982;-77
2021/09/18 03:33:18;;;;;;;34.83;23.60;;;;;11.40;101058.00;;;;10513458;28;20311;-77
2021/09/18 03:38:19;;;;;;;33.17;22.17;;;;;11.30;101053.00;;;;10520998;28;20256;-78
2021/09/18 03:43:21;;;;;;;34.20;22.73;;;;;11.20;101057.00;;;;10503287;27;20196;-77
2021/09/18 03:48:22;;;;;;;36.47;23.43;;;;;11.20;101056.00;;;;10519996;28;20220;-77
2021/09/18 03:53:28;;;;;;;39.70;23.90;;;;;11.20;101057.00;;;;10506601;28;20251;-78
2021/09/18 03:58:30;;;;;;;36.53;22.57;;;;;11.20;101060.00;;;;10543950;27;20718;-77
2021/09/18 04:03:31;;;;;;;43.53;25.10;;;;;11.20;101064.00;;;;10520761;28;20283;-77
2021/09/18 04:08:32;;;;;;;35.83;25.20;;;;;11.20;101063.00;;;;10502083;28;20630;-78
2021/09/18 04:13:33;;;;;;;40.30;23.80;;;;;11.10;101074.00;;;;10509705;28;20842;-78
2021/09/18 04:18:35;;;;;;;41.00;25.53;;;;;11.10;101074.00;;;;10528049;27;20234;-77
2021/09/18 04:23:36;;;;;;;38.37;24.33;;;;;11.00;101071.00;;;;10518417;27;20201;-77
2021/09/18 04:28:37;;;;;;;37.10;23.23;;;;;11.00;101074.00;;;;10520939;27;20243;-77
2021/09/18 04:33:38;;;;;;;44.70;25.27;;;;;11.00;101076.00;;;;10503235;28;20252;-77
2021/09/18 04:38:40;;;;;;;41.50;26.27;;;;;11.00;101076.00;;;;10503161;28;20223;-78
2021/09/18 04:43:41;;;;;;;42.63;25.13;;;;;11.00;101080.00;;;;10523885;28;20812;-78
2021/09/18 04:48:42;;;;;;;40.07;25.63;;;;;10.90;101083.00;;;;10492239;28;20658;-77
2021/09/18 04:53:43;;;;;;;44.50;25.97;;;;;10.90;101085.00;;;;10520657;28;20289;-78
2021/09/18 04:58:51;;;;;;;46.17;29.43;;;;;10.90;101086.00;;;;10537715;27;20245;-78
2021/09/18 05:03:52;;;;;;;50.17;28.90;;;;;10.90;101090.00;;;;10527493;27;20228;-78
2021/09/18 05:08:53;;;;;;;50.27;29.30;;;;;10.90;101090.00;;;;10509267;28;20730;-77
2021/09/18 05:13:54;;;;;;;48.47;29.03;;;;;10.90;101093.00;;;;10493946;28;20215;-77
2021/09/18 05:18:56;;;;;;;51.97;30.53;;;;;10.90;101109.00;;;;10550598;27;20226;-78
2021/09/18 05:23:57;;;;;;;49.40;28.47;;;;;10.90;101096.00;;;;10497950;27;20215;-77
2021/09/18 05:28:58;;;;;;;48.30;29.23;;;;;10.90;101100.00;;;;10521789;27;20199;-78
2021/09/18 05:34:00;;;;;;;54.93;31.23;;;;;10.90;101105.00;;;;10532988;27;20215;-78
2021/09/18 05:39:02;;;;;;;48.83;29.53;;;;;11.00;101102.00;;;;10539207;27;20224;-78
2021/09/18 05:44:03;;;;;;;67.63;44.17;;;;;11.00;101102.00;;;;10526321;27;20214;-78
2021/09/18 05:49:05;;;;;;;60.10;34.87;;;;;11.10;101112.00;;;;10513840;28;20196;-78
2021/09/18 05:54:07;;;;;;;61.07;37.80;;;;;11.20;101113.00;;;;10505218;27;20236;-79
2021/09/18 05:59:08;;;;;;;52.17;32.53;;;;;11.50;101122.00;;;;10517653;27;20200;-77
2021/09/18 06:04:12;;;;;;;56.77;35.60;;;;;11.80;101143.00;;;;10521846;28;20650;-78
2021/09/18 06:09:13;;;;;;;72.40;41.67;;;;;12.10;101158.00;;;;10505130;27;20719;-78
2021/09/18 06:14:15;;;;;;;68.30;40.70;;;;;12.40;101161.00;;;;10496630;28;20330;-78
2021/09/18 06:19:18;;;;;;;64.57;39.13;;;;;12.60;101164.00;;;;10514583;28;20203;-78
2021/09/18 06:24:20;;;;;;;61.40;36.13;;;;;12.80;101163.00;;;;10532672;27;20376;-78
2021/09/18 06:29:21;;;;;;;58.13;37.00;;;;;13.10;101166.00;;;;10506998;27;20204;-78
2021/09/18 06:34:22;;;;;;;66.87;37.90;;;;;13.30;101173.00;;;;10528508;28;20211;-78
2021/09/18 06:39:23;;;;;;;66.27;38.30;;;;;13.60;101173.00;;;;10541152;27;20627;-78
2021/09/18 06:44:25;;;;;;;58.30;38.97;;;;;14.00;101188.00;;;;10514055;27;20663;-78
2021/09/18 06:49:26;;;;;;;57.83;36.87;;;;;14.40;101203.00;;;;10509714;27;20192;-78
2021/09/18 06:54:27;;;;;;;47.40;32.63;;;;;14.70;101202.00;;;;10554639;27;20655;-78
2021/09/18 06:59:28;;;;;;;45.17;33.13;;;;;15.00;101202.00;;;;10506790;27;20243;-79
2021/09/18 07:04:29;;;;;;;44.53;34.07;;;;;15.40;101207.00;;;;10533639;27;20247;-79
2021/09/18 07:09:31;;;;;;;49.93;34.87;;;;;15.80;101215.00;;;;10531997;28;20333;-79
2021/09/18 07:14:37;;;;;;;42.22;30.23;;;;;16.10;101210.00;;;;10529419;28;20207;-79
2021/09/18 07:19:38;;;;;;;41.22;31.88;;;;;16.20;101209.00;;;;10487512;28;20312;-79
2021/09/18 07:24:39;;;;;;;44.25;30.90;;;;;16.50;101212.00;;;;10501543;28;20218;-79
2021/09/18 07:29:40;;;;;;;39.28;31.55;;;;;16.80;101210.00;;;;10522400;27;20212;-79
2021/09/18 07:34:41;;;;;;;37.78;30.33;;;;;17.10;101214.00;;;;10519665;28;20330;-79
2021/09/18 07:39:50;;;;;;;36.70;29.83;;;;;17.30;101214.00;;;;10516957;28;20262;-79
2021/09/18 07:44:51;;;;;;;32.42;26.90;;;;;17.70;101207.00;;;;10520450;28;20227;-79
2021/09/18 07:49:52;;;;;;;31.27;26.50;;;;;18.10;101202.00;;;;10552339;27;20221;-79
2021/09/18 07:54:54;;;;;;;30.20;24.02;;;;;18.40;101213.00;;;;10550247;27;20882;-79
2021/09/18 08:00:15;;;;;;;33.53;22.55;;;;;18.80;101227.00;;;;10525537;27;20196;-80
2021/09/18 08:05:16;;;;;;;27.55;21.77;;;;;19.00;101216.00;;;;10547947;28;20199;-79
2021/09/18 08:10:17;;;;;;;23.50;19.25;;;;;19.30;101221.00;;;;10531894;27;20249;-80
2021/09/18 08:15:19;;;;;;;24.63;21.15;;;;;19.60;101221.00;;;;10522660;28;20667;-79
2021/09/18 08:20:21;;;;;;;24.05;21.45;;;;;19.70;101212.00;;;;10513931;27;20200;-79
2021/09/18 08:25:22;;;;;;;22.98;19.60;;;;;19.80;101203.00;;;;10518901;28;20200;-79
2021/09/18 08:30:24;;;;;;;26.45;23.65;;;;;20.00;101205.00;;;;10527385;28;20212;-80
2021/09/18 08:35:25;;;;;;;20.40;15.60;;;;;20.10;101198.00;;;;10531562;27;20282;-79
2021/09/18 08:40:27;;;;;;;20.20;16.40;;;;;20.20;101196.00;;;;10511160;27;20686;-79
2021/09/18 08:45:29;;;;;;;17.95;15.95;;;;;20.50;101190.00;;;;10489595;28;20898;-79
2021/09/18 08:50:32;;;;;;;16.70;14.93;;;;;21.40;101175.00;;;;10521756;27;20216;-79
2021/09/18 08:55:33;;;;;;;13.30;11.88;;;;;22.00;101167.00;;;;10506044;27;20614;-79
2021/09/18 09:00:34;;;;;;;13.20;10.38;;;;;22.30;101163.00;;;;10537676;27;20204;-80
2021/09/18 09:05:38;;;;;;;10.35;9.30;;;;;22.80;101164.00;;;;10521863;27;20211;-79
2021/09/18 09:10:43;;;;;;;9.63;8.68;;;;;23.10;101154.00;;;;10510518;28;20227;-80
2021/09/18 09:15:47;;;;;;;8.80;7.80;;;;;23.50;101152.00;;;;10532499;27;20222;-79
2021/09/18 09:20:52;;;;;;;9.50;8.50;;;;;23.90;101161.00;;;;10512382;28;20196;-80
2021/09/18 09:25:54;;;;;;;10.95;8.38;;;;;24.10;101158.00;;;;10508227;27;20218;-79
2021/09/18 09:31:16;;;;;;;9.98;8.95;;;;;24.50;101154.00;;;;10522486;27;20220;-79
2021/09/18 09:36:18;;;;;;;9.65;8.65;;;;;24.80;101163.00;;;;10540654;27;20196;-80
2021/09/18 09:41:33;;;;;;;11.25;9.18;;;;;25.20;101164.00;;;;10524132;27;20222;-77
2021/09/18 09:46:35;;;;;;;9.77;8.80;;;;;25.40;101166.00;;;;10518179;28;20206;-78
2021/09/18 09:51:37;;;;;;;10.43;9.38;;;;;25.60;101161.00;;;;10518848;27;20454;-77
2021/09/18 09:56:38;;;;;;;11.60;10.50;;;;;25.50;101160.00;;;;10528969;28;20208;-77
2021/09/18 10:01:40;;;;;;;10.32;9.32;;;;;25.70;101167.00;;;;10488604;28;20258;-77
2021/09/18 10:06:41;;;;;;;12.25;9.98;;;;;25.80;101156.00;;;;10541699;27;20207;-78
2021/09/18 10:11:43;;;;;;;11.73;8.93;;;;;25.90;101156.00;;;;10526760;27;20220;-78
2021/09/18 10:16:46;;;;;;;10.73;9.63;;;;;26.00;101150.00;;;;10494317;28;20196;-78
2021/09/18 10:28:08;;;;;;;11.80;10.05;;;;;25.80;101153.00;;;;10529208;27;20361;-77
2021/09/18 10:33:36;;;;;;;10.48;9.15;;;;;26.20;101151.00;;;;10508042;27;20219;-77
2021/09/18 10:39:05;;;;;;;14.57;12.15;;;;;26.40;101147.00;;;;10516298;27;20225;-77
2021/09/18 10:44:06;;;;;;;16.75;13.25;;;;;26.40;101150.00;;;;10487939;27;20298;-77
2021/09/18 10:49:33;;;;;;;17.05;14.52;;;;;26.50;101137.00;;;;10494218;27;20986;-78
2021/09/18 10:54:34;;;;;;;12.25;10.80;;;;;26.70;101129.00;;;;10516167;27;20587;-78
2021/09/18 10:59:45;;;;;;;14.00;12.27;;;;;26.90;101124.00;;;;10513619;28;20200;-78
2021/09/18 11:04:47;;;;;;;14.65;11.52;;;;;27.20;101123.00;;;;10544686;27;20210;-78
2021/09/18 11:09:49;;;;;;;12.07;10.77;;;;;27.40;101121.00;;;;10513653;27;20302;-78
2021/09/18 11:15:01;;;;;;;11.20;9.82;;;;;27.40;101118.00;;;;10529328;27;20241;-78
2021/09/18 11:20:21;;;;;;;8.98;8.00;;;;;27.40;101119.00;;;;10545696;27;20222;-78
2021/09/18 11:25:32;;;;;;;11.20;8.77;;;;;27.40;101124.00;;;;10511900;27;20200;-78
2021/09/18 11:30:49;;;;;;;7.85;7.00;;;;;27.40;101121.00;;;;10511288;28;20261;-78
2021/09/18 11:35:55;;;;;;;7.15;6.55;;;;;27.50;101107.00;;;;10546444;28;20230;-78
2021/09/18 11:41:08;;;;;;;8.15;6.70;;;;;27.60;101109.00;;;;10542085;28;20266;-78
2021/09/18 11:46:15;;;;;;;7.28;6.57;;;;;27.70;101096.00;;;;10521337;28;20196;-77
2021/09/18 11:51:17;;;;;;;7.50;5.97;;;;;27.90;101101.00;;;;10528347;28;20209;-78
2021/09/18 11:56:20;;;;;;;7.55;6.88;;;;;28.00;101100.00;;;;10527081;27;20208;-79
2021/09/18 12:01:21;;;;;;;7.75;6.95;;;;;27.30;101096.00;;;;10510662;28;20243;-78
2021/09/18 12:06:23;;;;;;;8.23;7.40;;;;;27.40;101094.00;;;;10519545;27;20200;-78
2021/09/18 12:11:24;;;;;;;8.02;6.60;;;;;27.40;101094.00;;;;10536790;28;20247;-78
2021/09/18 12:16:25;;;;;;;6.50;5.85;;;;;27.50;101086.00;;;;10534217;27;20228;-79
2021/09/18 12:21:30;;;;;;;5.88;5.38;;;;;27.60;101081.00;;;;10537678;27;20230;-78
2021/09/18 12:26:35;;;;;;;7.82;5.43;;;;;27.50;101084.00;;;;10560026;27;20200;-78
2021/09/18 12:31:37;;;;;;;6.65;5.60;;;;;27.60;101081.00;;;;10540072;27;20215;-77
2021/09/18 12:36:39;;;;;;;7.80;5.57;;;;;27.60;101082.00;;;;10502538;27;20219;-78
2021/09/18 12:41:42;;;;;;;6.07;4.97;;;;;27.90;101074.00;;;;10524559;27;20220;-78
2021/09/18 12:46:47;;;;;;;6.03;5.43;;;;;28.10;101071.00;;;;10519460;27;20223;-78
2021/09/18 12:51:58;;;;;;;7.45;5.30;;;;;27.80;101064.00;;;;10535759;28;20729;-78
2021/09/18 12:57:06;;;;;;;6.28;4.30;;;;;27.90;101060.00;;;;10558231;27;20235;-79
2021/09/18 13:02:09;;;;;;;7.18;6.05;;;;;27.40;101068.00;;;;10526726;28;20629;-78
2021/09/18 13:07:12;;;;;;;6.95;6.07;;;;;26.90;101055.00;;;;10530196;27;20219;-78
2021/09/18 13:12:16;;;;;;;7.38;5.97;;;;;27.20;101059.00;;;;10553836;27;20245;-78
2021/09/18 13:17:18;;;;;;;7.25;6.28;;;;;27.30;101054.00;;;;10555781;27;20471;-77
2021/09/18 13:22:29;;;;;;;13.43;7.60;;;;;27.00;101057.00;;;;10508945;28;20304;-77
2021/09/18 13:27:30;;;;;;;9.80;8.57;;;;;27.20;101048.00;;;;10498967;27;20222;-77
2021/09/18 13:32:32;;;;;;;8.20;7.38;;;;;26.70;101050.00;;;;10526242;28;20235;-78
2021/09/18 13:37:34;;;;;;;8.20;6.57;;;;;25.50;101054.00;;;;10516357;27;20323;-77
2021/09/18 13:42:37;;;;;;;7.05;6.35;;;;;25.90;101038.00;;;;10512984;27;20262;-78
2021/09/18 13:47:38;;;;;;;8.50;6.47;;;;;26.50;101034.00;;;;10511010;27;20220;-78
2021/09/18 13:52:40;;;;;;;8.57;6.90;;;;;26.20;101027.00;;;;10526100;28;20204;-77
2021/09/18 13:57:42;;;;;;;8.40;6.28;;;;;25.80;101027.00;;;;10510498;27;20294;-78
2021/09/18 14:02:43;;;;;;;7.00;6.40;;;;;26.40;101027.00;;;;10521394;28;20877;-77
2021/09/18 14:07:45;;;;;;;6.82;6.22;;;;;26.40;101027.00;;;;10527036;28;20777;-78
2021/09/18 14:12:46;;;;;;;6.00;5.00;;;;;26.70;101024.00;;;;10529845;27;20212;-78
2021/09/18 14:17:48;;;;;;;6.82;6.20;;;;;26.60;101020.00;;;;10522726;28;20714;-77
2021/09/18 14:22:49;;;;;;;8.95;7.35;;;;;26.30;101009.00;;;;10534284;27;20216;-78
2021/09/18 14:27:51;;;;;;;9.48;6.72;;;;;27.30;100990.00;;;;10532458;28;20189;-78
2021/09/18 14:32:52;;;;;;;7.32;6.20;;;;;26.60;100999.00;;;;10546132;27;20214;-78
2021/09/18 14:37:55;;;;;;;29.27;22.52;;;;;25.30;100992.00;;;;10510986;28;20242;-78
2021/09/18 14:42:56;;;;;;;6.35;5.75;;;;;25.10;100995.00;;;;10537571;28;20222;-77
2021/09/18 14:47:57;;;;;;;7.60;6.85;;;;;24.80;100992.00;;;;10510239;28;20286;-78
2021/09/18 14:52:59;;;;;;;10.75;9.48;;;;;24.70;100990.00;;;;10542111;27;20224;-77
2021/09/18 14:58:11;;;;;;;8.00;7.20;;;;;24.40;100987.00;;;;10531619;28;20199;-78
2021/09/18 15:03:12;;;;;;;8.88;7.97;;;;;24.10;100987.00;;;;10530881;27;20960;-77
2021/09/18 15:08:14;;;;;;;10.27;8.98;;;;;23.90;100989.00;;;;10541466;28;20288;-77
2021/09/18 15:13:15;;;;;;;9.73;8.93;;;;;23.90;100985.00;;;;10540621;27;20289;-77
2021/09/18 15:18:16;;;;;;;11.43;10.32;;;;;24.00;100987.00;;;;10531468;27;20262;-77
2021/09/18 15:23:17;;;;;;;10.02;8.98;;;;;23.90;100980.00;;;;10504450;28;20523;-77
2021/09/18 15:28:21;;;;;;;10.48;9.48;;;;;24.00;100980.00;;;;10520442;28;20606;-77
2021/09/18 15:33:22;;;;;;;9.48;8.52;;;;;23.90;100969.00;;;;10500421;27;20292;-77
2021/09/18 15:38:24;;;;;;;8.77;7.80;;;;;23.80;100975.00;;;;10519702;28;20217;-77
2021/09/18 15:43:25;;;;;;;7.05;6.30;;;;;23.80;100981.00;;;;10539202;28;20562;-77
2021/09/18 15:48:26;;;;;;;9.55;8.40;;;;;23.60;100982.00;;;;10547624;27;20280;-79
2021/09/18 15:53:27;;;;;;;8.77;5.88;;;;;23.40;100977.00;;;;10523320;28;20744;-78
2021/09/18 15:58:28;;;;;;;6.85;6.22;;;;;23.00;100975.00;;;;10520365;27;20432;-77
2021/09/18 16:03:30;;;;;;;6.75;6.05;;;;;22.80;100977.00;;;;10527185;28;20204;-77
2021/09/18 16:08:32;;;;;;;6.53;5.82;;;;;22.60;100977.00;;;;10538172;28;20215;-77
2021/09/18 16:13:33;;;;;;;6.60;5.85;;;;;22.60;100965.00;;;;10508803;28;20220;-76
2021/09/18 16:18:35;;;;;;;10.32;7.55;;;;;22.50;100964.00;;;;10575732;27;20196;-77
2021/09/18 16:23:36;;;;;;;7.03;6.32;;;;;22.40;100958.00;;;;10558708;27;20287;-77
2021/09/18 16:28:38;;;;;;;6.57;5.90;;;;;22.30;100952.00;;;;10541832;28;20868;-76
2021/09/18 16:33:39;;;;;;;7.15;6.30;;;;;22.20;100954.00;;;;10557929;28;20244;-77
2021/09/18 16:38:40;;;;;;;6.20;5.60;;;;;22.10;100950.00;;;;10541301;27;20212;-76
2021/09/18 16:43:42;;;;;;;7.93;6.32;;;;;22.00;100949.00;;;;10525421;27;20196;-77
2021/09/18 16:48:43;;;;;;;8.63;6.00;;;;;21.80;100944.00;;;;10520771;27;20204;-76
2021/09/18 16:53:45;;;;;;;6.75;5.80;;;;;21.70;100950.00;;;;10516057;28;20250;-76
2021/09/18 16:58:46;;;;;;;7.22;5.72;;;;;21.60;100945.00;;;;10553252;28;20202;-76
2021/09/18 17:03:47;;;;;;;6.72;6.07;;;;;21.50;100941.00;;;;10557044;28;20208;-76
2021/09/18 17:08:48;;;;;;;7.95;6.35;;;;;21.20;100947.00;;;;10505586;28;20235;-76
2021/09/18 17:13:49;;;;;;;11.02;7.20;;;;;21.00;100944.00;;;;10498960;28;20221;-77
2021/09/18 17:18:51;;;;;;;6.88;6.15;;;;;20.80;100941.00;;;;10482544;28;20239;-76
2021/09/18 17:23:52;;;;;;;9.07;6.32;;;;;20.50;100940.00;;;;10517278;28;20217;-76
2021/09/18 17:28:53;;;;;;;12.18;7.68;;;;;20.30;100939.00;;;;10535345;28;20294;-76
2021/09/18 17:33:54;;;;;;;10.30;8.55;;;;;20.10;100938.00;;;;10556672;28;20295;-76
2021/09/18 17:38:56;;;;;;;7.68;6.97;;;;;19.90;100944.00;;;;10543792;27;20219;-75
2021/09/18 17:43:58;;;;;;;8.48;7.63;;;;;19.70;100946.00;;;;10516860;28;20276;-76
2021/09/18 17:48:59;;;;;;;9.40;8.50;;;;;19.50;100933.00;;;;10499310;28;20295;-76
2021/09/18 17:54:00;;;;;;;11.95;9.80;;;;;19.40;100941.00;;;;10532494;28;20216;-76
2021/09/18 17:59:02;;;;;;;10.23;9.13;;;;;19.20;100932.00;;;;10525841;28;20207;-76
2021/09/18 18:04:04;;;;;;;11.20;9.15;;;;;19.00;100946.00;;;;10497427;28;20197;-76
2021/09/18 18:09:06;;;;;;;13.52;10.63;;;;;18.90;100940.00;;;;10533241;27;20195;-77
2021/09/18 18:14:07;;;;;;;10.60;9.50;;;;;18.70;100941.00;;;;10543066;28;20218;-76
2021/09/18 18:19:09;;;;;;;10.40;9.30;;;;;18.60;100954.00;;;;10555159;28;20196;-77
2021/09/18 18:24:10;;;;;;;14.05;10.43;;;;;18.50;100962.00;;;;10560959;28;20199;-76
2021/09/18 18:29:12;;;;;;;10.75;8.60;;;;;18.50;100977.00;;;;10562889;28;20587;-76
2021/09/18 18:34:13;;;;;;;10.57;9.18;;;;;18.50;100985.00;;;;10545563;28;20298;-76
2021/09/18 18:39:14;;;;;;;9.82;8.90;;;;;18.40;100986.00;;;;10537189;27;20207;-75
2021/09/18 18:44:15;;;;;;;12.40;8.93;;;;;18.40;100988.00;;;;10529803;27;20657;-76
2021/09/18 18:49:16;;;;;;;11.38;9.18;;;;;18.30;100996.00;;;;10547408;27;20203;-76
2021/09/18 18:54:18;;;;;;;13.02;9.68;;;;;18.20;101000.00;;;;10529545;27;20251;-76
2021/09/18 18:59:19;;;;;;;11.27;10.02;;;;;18.10;101007.00;;;;10545155;28;20219;-77
2021/09/18 19:04:20;;;;;;;12.82;11.52;;;;;18.00;101014.00;;;;10544799;28;20203;-76
2021/09/18 19:09:23;;;;;;;12.93;11.38;;;;;17.90;101019.00;;;;10526974;27;20292;-76
2021/09/18 19:14:25;;;;;;;12.80;11.20;;;;;17.80;101017.00;;;;10545497;27;20314;-76
2021/09/18 19:19:27;;;;;;;13.70;11.75;;;;;17.70;101016.00;;;;10529053;27;20302;-76
2021/09/18 19:24:28;;;;;;;13.82;10.93;;;;;17.50;101019.00;;;;10545311;27;20251;-76
2021/09/18 19:29:30;;;;;;;11.13;10.00;;;;;17.40;101029.00;;;;10544568;28;20209;-76
2021/09/18 19:34:32;;;;;;;15.77;14.05;;;;;17.30;101029.00;;;;10526998;28;20212;-76
2021/09/18 19:39:34;;;;;;;12.25;10.63;;;;;17.20;101017.00;;;;10561167;27;20724;-76
2021/09/18 19:44:37;;;;;;;35.80;27.33;;;;;17.10;101024.00;;;;10561088;27;20196;-77
2021/09/18 19:49:38;;;;;;;27.15;22.33;;;;;17.00;101030.00;;;;10544304;27;20220;-76
2021/09/18 19:54:39;;;;;;;22.10;16.75;;;;;16.90;101024.00;;;;10562397;27;20222;-76
2021/09/18 19:59:40;;;;;;;32.72;22.23;;;;;16.80;101016.00;;;;10501314;28;20971;-76
2021/09/18 20:04:42;;;;;;;17.58;13.82;;;;;16.80;101014.00;;;;10510611;27;20207;-76
2021/09/18 20:09:43;;;;;;;21.23;17.13;;;;;16.70;101017.00;;;;10521790;27;20824;-76
2021/09/18 20:14:44;;;;;;;13.90;12.48;;;;;16.70;101007.00;;;;10507308;28;20240;-78
2021/09/18 20:19:45;;;;;;;12.70;11.35;;;;;16.60;101014.00;;;;10529276;27;20207;-76
2021/09/18 20:24:46;;;;;;;14.50;10.85;;;;;16.50;101014.00;;;;10527085;27;20208;-76
2021/09/18 20:29:47;;;;;;;12.17;10.40;;;;;16.50;101007.00;;;;10515976;28;20204;-76
2021/09/18 20:34:48;;;;;;;11.37;10.20;;;;;16.40;101009.00;;;;10522034;27;20293;-76
2021/09/18 20:39:50;;;;;;;13.90;12.40;;;;;16.40;101004.00;;;;10532417;27;20227;-78
2021/09/18 20:44:51;;;;;;;14.05;12.57;;;;;16.30;101006.00;;;;10505999;28;20203;-78
2021/09/18 20:49:52;;;;;;;14.53;13.03;;;;;16.20;101003.00;;;;10487170;28;20192;-76
2021/09/18 20:54:53;;;;;;;15.07;12.27;;;;;16.10;100995.00;;;;10488155;28;20221;-77
2021/09/18 20:59:54;;;;;;;14.68;13.15;;;;;16.10;100996.00;;;;10533521;27;20250;-77
2021/09/18 21:04:56;;;;;;;15.63;13.40;;;;;16.00;100985.00;;;;10487257;28;20693;-77
2021/09/18 21:09:57;;;;;;;16.63;14.67;;;;;16.00;100987.00;;;;10512236;28;20188;-76
2021/09/18 21:14:58;;;;;;;15.03;13.53;;;;;15.90;100983.00;;;;10528301;27;20767;-76
2021/09/18 21:19:59;;;;;;;17.57;15.67;;;;;15.90;100970.00;;;;10544859;27;20203;-76
2021/09/18 21:25:02;;;;;;;17.27;14.23;;;;;15.90;100971.00;;;;10539249;27;20791;-76
2021/09/18 21:30:05;;;;;;;17.87;15.47;;;;;15.90;100977.00;;;;10527207;27;20257;-76
2021/09/18 21:35:11;;;;;;;19.00;15.17;;;;;15.80;100966.00;;;;10518890;28;20209;-76
2021/09/18 21:40:12;;;;;;;26.40;19.93;;;;;15.70;100969.00;;;;10519264;28;20683;-76
2021/09/18 21:45:14;;;;;;;22.77;16.60;;;;;15.60;100960.00;;;;10528442;27;20239;-76
2021/09/18 21:50:15;;;;;;;19.23;17.23;;;;;15.50;100956.00;;;;10521113;28;20208;-76
2021/09/18 21:55:17;;;;;;;21.50;19.20;;;;;15.50;100953.00;;;;10540813;27;20211;-76
2021/09/18 22:00:29;;;;;;;29.47;22.93;;;;;15.50;100956.00;;;;10539519;28;20199;-76
2021/09/18 22:05:32;;;;;;;27.07;23.20;;;;;15.40;100947.00;;;;10541529;28;20214;-76
2021/09/18 22:10:33;;;;;;;29.43;25.20;;;;;15.40;100941.00;;;;10527041;27;20263;-77
2021/09/18 22:15:35;;;;;;;27.10;22.20;;;;;15.30;100944.00;;;;10511390;28;20659;-76
2021/09/18 22:20:36;;;;;;;22.17;19.27;;;;;15.30;100942.00;;;;10501784;28;20197;-76
2021/09/18 22:25:37;;;;;;;35.17;25.93;;;;;15.30;100940.00;;;;10525018;27;20188;-76
2021/09/18 22:30:38;;;;;;;28.70;23.23;;;;;15.20;100933.00;;;;10537893;27;20212;-76
2021/09/18 22:35:39;;;;;;;26.47;20.93;;;;;15.20;100943.00;;;;10538477;27;20570;-76
2021/09/18 22:40:42;;;;;;;27.33;21.83;;;;;15.20;100936.00;;;;10507931;27;20694;-76
2021/09/18 22:45:44;;;;;;;24.07;21.43;;;;;15.10;100933.00;;;;10542775;27;20250;-77
2021/09/18 22:50:45;;;;;;;24.13;20.53;;;;;15.00;100933.00;;;;10533119;28;20298;-76
2021/09/18 22:55:47;;;;;;;28.97;21.67;;;;;14.90;100926.00;;;;10537940;27;20235;-77
2021/09/18 23:00:48;;;;;;;27.73;22.07;;;;;14.80;100932.00;;;;10532749;27;20208;-77
2021/09/18 23:05:50;;;;;;;27.97;23.43;;;;;14.80;100926.00;;;;10504496;27;20287;-77
2021/09/18 23:10:51;;;;;;;33.70;24.90;;;;;14.70;100918.00;;;;10512032;28;20221;-77
2021/09/18 23:15:53;;;;;;;30.73;25.57;;;;;14.60;100914.00;;;;10489793;28;20201;-77
2021/09/18 23:20:54;;;;;;;30.23;25.77;;;;;14.60;100896.00;;;;10489827;28;20209;-76
2021/09/18 23:25:58;;;;;;;31.23;27.30;;;;;14.50;100882.00;;;;10479366;28;20216;-76
2021/09/18 23:31:00;;;;;;;34.00;27.87;;;;;14.40;100884.00;;;;10471042;28;20217;-77
2021/09/18 23:36:02;;;;;;;33.07;27.83;;;;;14.40;100882.00;;;;10511987;28;20189;-76
2021/09/18 23:41:04;;;;;;;33.67;27.63;;;;;14.40;100881.00;;;;10503628;28;20231;-76
2021/09/18 23:46:05;;;;;;;33.47;27.33;;;;;14.30;100875.00;;;;10465062;28;20679;-76
2021/09/18 23:51:08;;;;;;;31.57;27.27;;;;;14.30;100873.00;;;;10463088;28;20232;-76
2021/09/18 23:56:09;;;;;;;32.00;27.13;;;;;14.30;100873.00;;;;10476815;28;20332;-76
